sensor_id;sensor_type;location;lat;lon;timestamp;pressure;altitude;pressure_sealevel;temperature;humidity
20696;BME280;10507;52.754;13.040;2023-07-09T00:01:16;101396.44;;;16.49;85.32
20696;BME280;10507;52.754;13.040;2023-07-09T00:03:45;101391.53;;;16.41;85.21
20696;BME280;10507;52.754;13.040;2023-07-09T00:06:15;101376.34;;;16.26;85.50
20696;BME280;10507;52.754;13.040;2023-07-09T00:08:49;101391.63;;;16.11;86.59
20696;BME280;10507;52.754;13.040;2023-07-09T00:11:17;101402.38;;;15.96;87.30
20696;BME280;10507;52.754;13.040;2023-07-09T00:13:45;101411.47;;;15.94;88.66
20696;BME280;10507;52.754;13.040;2023-07-09T00:16:14;101401.09;;;15.88;88.33
20696;BME280;10507;52.754;13.040;2023-07-09T00:18:43;101398.00;;;15.79;88.25
20696;BME280;10507;52.754;13.040;2023-07-09T00:21:11;101395.81;;;15.70;88.84
20696;BME280;10507;52.754;13.040;2023-07-09T00:23:39;101415.88;;;15.80;89.41
20696;BME280;10507;52.754;13.040;2023-07-09T00:26:11;101402.53;;;15.79;89.72
20696;BME280;10507;52.754;13.040;2023-07-09T00:28:40;101397.16;;;15.63;89.66
20696;BME280;10507;52.754;13.040;2023-07-09T00:31:11;101411.03;;;15.71;90.56
20696;BME280;10507;52.754;13.040;2023-07-09T00:33:40;101406.53;;;15.72;90.82
20696;BME280;10507;52.754;13.040;2023-07-09T00:36:14;101400.78;;;15.78;89.97
20696;BME280;10507;52.754;13.040;2023-07-09T00:38:42;101383.41;;;15.84;88.90
20696;BME280;10507;52.754;13.040;2023-07-09T00:41:18;101372.63;;;15.84;88.61
20696;BME280;10507;52.754;13.040;2023-07-09T00:43:48;101391.28;;;15.87;89.13
20696;BME280;10507;52.754;13.040;2023-07-09T00:49:28;101385.00;;;15.72;90.45
20696;BME280;10507;52.754;13.040;2023-07-09T00:51:59;101381.00;;;15.63;89.63
20696;BME280;10507;52.754;13.040;2023-07-09T00:54:33;101370.78;;;15.54;89.40
20696;BME280;10507;52.754;13.040;2023-07-09T00:57:09;101375.81;;;15.44;89.94
20696;BME280;10507;52.754;13.040;2023-07-09T00:59:39;101375.50;;;15.34;89.83
20696;BME280;10507;52.754;13.040;2023-07-09T01:02:08;101390.94;;;15.31;91.37
20696;BME280;10507;52.754;13.040;2023-07-09T01:04:36;101384.00;;;15.27;91.33
20696;BME280;10507;52.754;13.040;2023-07-09T01:07:05;101389.50;;;15.25;91.91
20696;BME280;10507;52.754;13.040;2023-07-09T01:09:34;101376.03;;;15.25;90.86
20696;BME280;10507;52.754;13.040;2023-07-09T01:12:10;101368.75;;;15.27;91.08
20696;BME280;10507;52.754;13.040;2023-07-09T01:14:39;101377.22;;;15.35;90.96
20696;BME280;10507;52.754;13.040;2023-07-09T01:17:07;101388.69;;;15.39;91.74
20696;BME280;10507;52.754;13.040;2023-07-09T01:19:40;101384.50;;;15.33;91.97
20696;BME280;10507;52.754;13.040;2023-07-09T01:22:13;101364.16;;;15.29;90.80
20696;BME280;10507;52.754;13.040;2023-07-09T01:24:55;101349.03;;;15.27;90.20
20696;BME280;10507;52.754;13.040;2023-07-09T01:27:25;101349.69;;;15.16;90.04
20696;BME280;10507;52.754;13.040;2023-07-09T01:29:55;101371.09;;;15.02;90.88
20696;BME280;10507;52.754;13.040;2023-07-09T01:32:23;101386.03;;;14.91;91.64
20696;BME280;10507;52.754;13.040;2023-07-09T01:34:54;101394.97;;;14.76;92.33
20696;BME280;10507;52.754;13.040;2023-07-09T01:37:26;101403.63;;;14.65;93.38
20696;BME280;10507;52.754;13.040;2023-07-09T01:39:54;101422.06;;;14.55;93.60
20696;BME280;10507;52.754;13.040;2023-07-09T01:42:24;101435.78;;;14.67;93.63
20696;BME280;10507;52.754;13.040;2023-07-09T01:44:53;101422.31;;;14.84;92.42
20696;BME280;10507;52.754;13.040;2023-07-09T01:47:22;101412.31;;;14.86;92.23
20696;BME280;10507;52.754;13.040;2023-07-09T01:49:51;101433.56;;;14.91;93.38
20696;BME280;10507;52.754;13.040;2023-07-09T01:52:27;101428.63;;;14.83;94.13
20696;BME280;10507;52.754;13.040;2023-07-09T01:54:56;101426.09;;;14.80;93.02
20696;BME280;10507;52.754;13.040;2023-07-09T01:57:25;101418.97;;;14.79;92.52
20696;BME280;10507;52.754;13.040;2023-07-09T02:00:02;101415.25;;;14.82;92.16
20696;BME280;10507;52.754;13.040;2023-07-09T02:02:31;101419.94;;;14.78;93.37
20696;BME280;10507;52.754;13.040;2023-07-09T02:04:59;101417.25;;;14.78;92.55
20696;BME280;10507;52.754;13.040;2023-07-09T02:07:29;101429.91;;;14.76;93.46
20696;BME280;10507;52.754;13.040;2023-07-09T02:09:57;101430.00;;;14.74;93.82
20696;BME280;10507;52.754;13.040;2023-07-09T02:12:25;101434.44;;;14.75;93.65
20696;BME280;10507;52.754;13.040;2023-07-09T02:14:53;101454.72;;;14.81;94.33
20696;BME280;10507;52.754;13.040;2023-07-09T02:17:21;101453.84;;;14.81;94.26
20696;BME280;10507;52.754;13.040;2023-07-09T02:19:49;101456.88;;;14.74;95.09
20696;BME280;10507;52.754;13.040;2023-07-09T02:22:17;101471.03;;;14.78;95.12
20696;BME280;10507;52.754;13.040;2023-07-09T02:24:47;101470.91;;;14.80;95.40
20696;BME280;10507;52.754;13.040;2023-07-09T02:27:17;101469.38;;;14.75;95.73
20696;BME280;10507;52.754;13.040;2023-07-09T02:29:45;101466.03;;;14.70;95.64
20696;BME280;10507;52.754;13.040;2023-07-09T02:32:17;101482.03;;;14.73;95.67
20696;BME280;10507;52.754;13.040;2023-07-09T02:34:46;101482.88;;;14.74;95.81
20696;BME280;10507;52.754;13.040;2023-07-09T02:37:16;101476.47;;;14.76;95.17
20696;BME280;10507;52.754;13.040;2023-07-09T02:39:46;101461.06;;;14.80;94.08
20696;BME280;10507;52.754;13.040;2023-07-09T02:42:18;101455.50;;;14.83;94.49
20696;BME280;10507;52.754;13.040;2023-07-09T02:44:46;101475.72;;;14.90;94.37
20696;BME280;10507;52.754;13.040;2023-07-09T02:47:15;101478.59;;;14.87;94.81
20696;BME280;10507;52.754;13.040;2023-07-09T02:49:43;101464.53;;;14.82;94.10
20696;BME280;10507;52.754;13.040;2023-07-09T02:52:13;101490.19;;;14.88;94.77
20696;BME280;10507;52.754;13.040;2023-07-09T02:54:41;101481.28;;;14.87;94.65
20696;BME280;10507;52.754;13.040;2023-07-09T02:57:11;101485.69;;;14.88;95.02
20696;BME280;10507;52.754;13.040;2023-07-09T02:59:39;101480.22;;;14.90;94.65
20696;BME280;10507;52.754;13.040;2023-07-09T03:02:07;101478.16;;;14.95;94.12
20696;BME280;10507;52.754;13.040;2023-07-09T03:04:35;101488.66;;;15.00;93.88
20696;BME280;10507;52.754;13.040;2023-07-09T03:07:03;101492.31;;;14.99;93.89
20696;BME280;10507;52.754;13.040;2023-07-09T03:09:31;101497.22;;;14.90;94.84
20696;BME280;10507;52.754;13.040;2023-07-09T03:11:59;101516.22;;;14.87;95.75
20696;BME280;10507;52.754;13.040;2023-07-09T03:14:28;101503.91;;;14.83;96.07
20696;BME280;10507;52.754;13.040;2023-07-09T03:16:56;101514.47;;;14.86;95.72
20696;BME280;10507;52.754;13.040;2023-07-09T03:19:24;101516.22;;;14.87;95.38
20696;BME280;10507;52.754;13.040;2023-07-09T03:21:52;101525.69;;;14.94;95.51
20696;BME280;10507;52.754;13.040;2023-07-09T03:24:20;101527.44;;;14.95;95.66
20696;BME280;10507;52.754;13.040;2023-07-09T03:26:48;101529.25;;;14.95;96.32
20696;BME280;10507;52.754;13.040;2023-07-09T03:29:16;101553.91;;;15.03;96.48
20696;BME280;10507;52.754;13.040;2023-07-09T03:31:47;101540.03;;;15.11;95.55
20696;BME280;10507;52.754;13.040;2023-07-09T03:34:16;101523.56;;;15.17;94.59
20696;BME280;10507;52.754;13.040;2023-07-09T03:36:44;101503.28;;;15.27;93.55
20696;BME280;10507;52.754;13.040;2023-07-09T03:39:12;101499.00;;;15.23;94.01
20696;BME280;10507;52.754;13.040;2023-07-09T03:41:40;101536.69;;;15.23;94.84
20696;BME280;10507;52.754;13.040;2023-07-09T03:44:08;101559.66;;;15.29;95.57
20696;BME280;10507;52.754;13.040;2023-07-09T03:46:36;101552.22;;;15.34;95.18
20696;BME280;10507;52.754;13.040;2023-07-09T03:49:05;101566.38;;;15.37;95.24
20696;BME280;10507;52.754;13.040;2023-07-09T03:51:33;101560.19;;;15.35;95.68
20696;BME280;10507;52.754;13.040;2023-07-09T03:54:01;101558.16;;;15.41;94.74
20696;BME280;10507;52.754;13.040;2023-07-09T03:56:28;101556.50;;;15.54;93.98
20696;BME280;10507;52.754;13.040;2023-07-09T03:58:56;101557.63;;;15.66;93.72
20696;BME280;10507;52.754;13.040;2023-07-09T04:01:24;101555.31;;;15.75;93.34
20696;BME280;10507;52.754;13.040;2023-07-09T04:03:52;101556.69;;;15.83;93.22
20696;BME280;10507;52.754;13.040;2023-07-09T04:06:21;101545.81;;;15.84;92.88
20696;BME280;10507;52.754;13.040;2023-07-09T04:08:49;101555.41;;;15.90;93.45
20696;BME280;10507;52.754;13.040;2023-07-09T04:11:17;101580.03;;;15.98;94.07
20696;BME280;10507;52.754;13.040;2023-07-09T04:13:45;101555.97;;;16.11;92.54
20696;BME280;10507;52.754;13.040;2023-07-09T04:16:13;101525.50;;;16.25;90.47
20696;BME280;10507;52.754;13.040;2023-07-09T04:18:41;101511.19;;;16.38;89.52
20696;BME280;10507;52.754;13.040;2023-07-09T04:21:09;101513.31;;;16.48;89.47
20696;BME280;10507;52.754;13.040;2023-07-09T04:23:38;101509.88;;;16.60;88.81
20696;BME280;10507;52.754;13.040;2023-07-09T04:26:08;101462.00;;;16.63;87.52
20696;BME280;10507;52.754;13.040;2023-07-09T04:28:39;101479.94;;;16.79;87.03
20696;BME280;10507;52.754;13.040;2023-07-09T04:31:07;101494.63;;;16.89;87.18
20696;BME280;10507;52.754;13.040;2023-07-09T04:33:36;101514.84;;;16.96;88.52
20696;BME280;10507;52.754;13.040;2023-07-09T04:36:04;101533.75;;;17.11;88.93
20696;BME280;10507;52.754;13.040;2023-07-09T04:38:35;101523.00;;;17.23;88.00
20696;BME280;10507;52.754;13.040;2023-07-09T04:41:04;101510.38;;;17.38;86.99
20696;BME280;10507;52.754;13.040;2023-07-09T04:43:33;101530.00;;;17.55;86.49
20696;BME280;10507;52.754;13.040;2023-07-09T04:46:01;101501.22;;;17.68;85.46
20696;BME280;10507;52.754;13.040;2023-07-09T04:48:29;101490.19;;;17.85;84.65
20696;BME280;10507;52.754;13.040;2023-07-09T04:50:57;101484.06;;;18.09;84.04
20696;BME280;10507;52.754;13.040;2023-07-09T04:53:26;101521.34;;;18.44;83.78
20696;BME280;10507;52.754;13.040;2023-07-09T04:55:54;101551.38;;;19.05;82.17
20696;BME280;10507;52.754;13.040;2023-07-09T04:58:24;101543.53;;;20.24;78.02
20696;BME280;10507;52.754;13.040;2023-07-09T05:00:51;101496.69;;;21.47;72.77
20696;BME280;10507;52.754;13.040;2023-07-09T05:03:20;101493.81;;;22.46;70.03
20696;BME280;10507;52.754;13.040;2023-07-09T05:05:48;101435.44;;;23.21;67.79
20696;BME280;10507;52.754;13.040;2023-07-09T05:08:16;101432.66;;;23.81;66.58
20696;BME280;10507;52.754;13.040;2023-07-09T05:10:45;101471.84;;;25.13;64.43
20696;BME280;10507;52.754;13.040;2023-07-09T05:13:13;101396.66;;;25.90;62.17
20696;BME280;10507;52.754;13.040;2023-07-09T05:15:44;101297.16;;;26.34;60.79
20696;BME280;10507;52.754;13.040;2023-07-09T05:18:14;101203.19;;;26.76;58.92
20696;BME280;10507;52.754;13.040;2023-07-09T05:20:46;101150.25;;;26.92;58.85
20696;BME280;10507;52.754;13.040;2023-07-09T05:23:14;101176.28;;;27.53;56.93
20696;BME280;10507;52.754;13.040;2023-07-09T05:25:42;101121.91;;;27.57;57.57
20696;BME280;10507;52.754;13.040;2023-07-09T05:28:10;101174.09;;;27.96;57.10
20696;BME280;10507;52.754;13.040;2023-07-09T05:30:42;101198.66;;;28.60;55.81
20696;BME280;10507;52.754;13.040;2023-07-09T05:33:10;101110.66;;;28.46;55.33
20696;BME280;10507;52.754;13.040;2023-07-09T05:35:38;101083.72;;;28.87;54.77
20696;BME280;10507;52.754;13.040;2023-07-09T05:38:06;101231.16;;;29.49;54.92
20696;BME280;10507;52.754;13.040;2023-07-09T05:40:33;101036.09;;;28.72;55.73
20696;BME280;10507;52.754;13.040;2023-07-09T05:43:01;101017.19;;;29.07;54.93
20696;BME280;10507;52.754;13.040;2023-07-09T05:45:30;101124.22;;;29.31;55.17
20696;BME280;10507;52.754;13.040;2023-07-09T05:48:00;101005.72;;;29.48;54.42
20696;BME280;10507;52.754;13.040;2023-07-09T05:50:28;101043.75;;;30.10;53.36
20696;BME280;10507;52.754;13.040;2023-07-09T05:52:56;100936.59;;;29.72;52.73
20696;BME280;10507;52.754;13.040;2023-07-09T05:55:24;101001.31;;;30.26;52.53
20696;BME280;10507;52.754;13.040;2023-07-09T05:57:52;100929.94;;;29.67;52.77
20696;BME280;10507;52.754;13.040;2023-07-09T06:00:20;100983.25;;;29.14;54.34
20696;BME280;10507;52.754;13.040;2023-07-09T06:02:48;101004.13;;;29.90;52.10
20696;BME280;10507;52.754;13.040;2023-07-09T06:05:18;101066.44;;;30.77;52.28
20696;BME280;10507;52.754;13.040;2023-07-09T06:07:47;101031.41;;;31.34;50.43
20696;BME280;10507;52.754;13.040;2023-07-09T06:10:15;101124.16;;;31.98;50.76
20696;BME280;10507;52.754;13.040;2023-07-09T06:12:43;100948.41;;;31.28;50.15
20696;BME280;10507;52.754;13.040;2023-07-09T06:15:11;101084.66;;;32.10;49.35
20696;BME280;10507;52.754;13.040;2023-07-09T06:17:39;101100.00;;;32.13;50.64
20696;BME280;10507;52.754;13.040;2023-07-09T06:20:08;101061.19;;;32.68;49.13
20696;BME280;10507;52.754;13.040;2023-07-09T06:22:38;101009.03;;;32.25;50.36
20696;BME280;10507;52.754;13.040;2023-07-09T06:25:06;100968.69;;;31.14;50.98
20696;BME280;10507;52.754;13.040;2023-07-09T06:27:34;100973.78;;;31.11;51.76
20696;BME280;10507;52.754;13.040;2023-07-09T06:30:03;100979.09;;;31.19;50.70
20696;BME280;10507;52.754;13.040;2023-07-09T06:32:31;101119.44;;;31.92;51.23
20696;BME280;10507;52.754;13.040;2023-07-09T06:34:59;101095.50;;;32.12;50.93
20696;BME280;10507;52.754;13.040;2023-07-09T06:37:27;101039.72;;;31.75;51.43
20696;BME280;10507;52.754;13.040;2023-07-09T06:39:57;101007.31;;;31.14;50.88
20696;BME280;10507;52.754;13.040;2023-07-09T06:42:25;101102.28;;;31.61;51.87
20696;BME280;10507;52.754;13.040;2023-07-09T06:44:52;101091.47;;;31.60;51.65
20696;BME280;10507;52.754;13.040;2023-07-09T06:47:20;101086.28;;;31.92;50.57
20696;BME280;10507;52.754;13.040;2023-07-09T06:49:48;101059.41;;;31.65;51.83
20696;BME280;10507;52.754;13.040;2023-07-09T06:52:16;101072.19;;;31.73;51.19
20696;BME280;10507;52.754;13.040;2023-07-09T06:54:44;101070.59;;;31.51;51.83
20696;BME280;10507;52.754;13.040;2023-07-09T06:57:13;101073.09;;;31.87;51.18
20696;BME280;10507;52.754;13.040;2023-07-09T06:59:41;101025.16;;;31.46;50.58
20696;BME280;10507;52.754;13.040;2023-07-09T07:02:09;101092.28;;;32.02;50.37
20696;BME280;10507;52.754;13.040;2023-07-09T07:04:37;101040.88;;;32.07;49.33
20696;BME280;10507;52.754;13.040;2023-07-09T07:07:04;101054.81;;;31.86;50.00
20696;BME280;10507;52.754;13.040;2023-07-09T07:09:32;101157.78;;;32.69;50.11
20696;BME280;10507;52.754;13.040;2023-07-09T07:12:00;101076.28;;;32.79;48.42
20696;BME280;10507;52.754;13.040;2023-07-09T07:14:29;101020.75;;;32.73;47.76
20696;BME280;10507;52.754;13.040;2023-07-09T07:16:57;101019.88;;;32.46;49.09
20696;BME280;10507;52.754;13.040;2023-07-09T07:19:26;101153.78;;;33.25;49.04
20696;BME280;10507;52.754;13.040;2023-07-09T07:21:54;101134.59;;;32.97;49.99
20696;BME280;10507;52.754;13.040;2023-07-09T07:24:22;101081.56;;;33.20;48.27
20696;BME280;10507;52.754;13.040;2023-07-09T07:26:50;101079.69;;;32.67;49.92
20696;BME280;10507;52.754;13.040;2023-07-09T07:29:18;101165.84;;;32.78;50.70
20696;BME280;10507;52.754;13.040;2023-07-09T07:31:47;101069.66;;;32.93;48.74
20696;BME280;10507;52.754;13.040;2023-07-09T07:34:15;101036.09;;;32.63;48.97
20696;BME280;10507;52.754;13.040;2023-07-09T07:36:43;101122.06;;;33.08;48.89
20696;BME280;10507;52.754;13.040;2023-07-09T07:39:13;101083.97;;;33.10;48.56
20696;BME280;10507;52.754;13.040;2023-07-09T07:41:41;101082.19;;;33.29;47.74
20696;BME280;10507;52.754;13.040;2023-07-09T07:44:09;101142.59;;;33.72;48.27
20696;BME280;10507;52.754;13.040;2023-07-09T07:46:37;101213.63;;;34.31;48.41
20696;BME280;10507;52.754;13.040;2023-07-09T07:49:06;101172.97;;;34.05;49.74
20696;BME280;10507;52.754;13.040;2023-07-09T07:51:34;101154.06;;;33.89;49.32
20696;BME280;10507;52.754;13.040;2023-07-09T07:54:02;101128.88;;;34.04;48.31
20696;BME280;10507;52.754;13.040;2023-07-09T07:56:30;101107.03;;;34.21;47.86
20696;BME280;10507;52.754;13.040;2023-07-09T07:58:58;101119.63;;;33.65;49.58
20696;BME280;10507;52.754;13.040;2023-07-09T08:01:26;101038.53;;;33.89;47.31
20696;BME280;10507;52.754;13.040;2023-07-09T08:03:55;101080.09;;;33.18;49.54
20696;BME280;10507;52.754;13.040;2023-07-09T08:06:24;101116.06;;;33.31;49.73
20696;BME280;10507;52.754;13.040;2023-07-09T08:08:52;101016.66;;;33.16;48.57
20696;BME280;10507;52.754;13.040;2023-07-09T08:11:20;101074.53;;;32.51;50.20
20696;BME280;10507;52.754;13.040;2023-07-09T08:13:48;101091.59;;;32.81;49.71
20696;BME280;10507;52.754;13.040;2023-07-09T08:16:16;101090.31;;;32.84;49.17
20696;BME280;10507;52.754;13.040;2023-07-09T08:18:45;101183.75;;;33.48;49.79
20696;BME280;10507;52.754;13.040;2023-07-09T08:21:13;101106.34;;;33.87;47.41
20696;BME280;10507;52.754;13.040;2023-07-09T08:23:42;101214.13;;;34.60;48.72
20696;BME280;10507;52.754;13.040;2023-07-09T08:26:10;101122.47;;;34.42;47.57
20696;BME280;10507;52.754;13.040;2023-07-09T08:28:38;101027.28;;;33.32;48.26
20696;BME280;10507;52.754;13.040;2023-07-09T08:31:06;101127.09;;;33.44;49.42
20696;BME280;10507;52.754;13.040;2023-07-09T08:33:34;101162.72;;;34.06;49.17
20696;BME280;10507;52.754;13.040;2023-07-09T08:36:03;101036.84;;;33.88;46.95
20696;BME280;10507;52.754;13.040;2023-07-09T08:38:31;101028.19;;;33.71;47.37
20696;BME280;10507;52.754;13.040;2023-07-09T08:41:13;101046.75;;;33.58;47.95
20696;BME280;10507;52.754;13.040;2023-07-09T08:43:58;101056.28;;;32.90;49.13
20696;BME280;10507;52.754;13.040;2023-07-09T08:46:39;101044.72;;;32.06;50.28
20696;BME280;10507;52.754;13.040;2023-07-09T08:49:14;101114.06;;;32.31;51.30
20696;BME280;10507;52.754;13.040;2023-07-09T08:51:45;101160.13;;;32.99;50.74
20696;BME280;10507;52.754;13.040;2023-07-09T08:54:20;101058.41;;;33.08;48.22
20696;BME280;10507;52.754;13.040;2023-07-09T08:57:00;101046.69;;;32.92;48.34
20696;BME280;10507;52.754;13.040;2023-07-09T08:59:30;101079.25;;;32.84;50.07
20696;BME280;10507;52.754;13.040;2023-07-09T09:01:59;101150.34;;;32.90;51.16
20696;BME280;10507;52.754;13.040;2023-07-09T09:04:34;101086.28;;;32.80;49.63
20696;BME280;10507;52.754;13.040;2023-07-09T09:07:12;101014.59;;;32.78;48.20
20696;BME280;10507;52.754;13.040;2023-07-09T09:09:48;101050.13;;;32.75;49.13
20696;BME280;10507;52.754;13.040;2023-07-09T09:12:21;100977.75;;;32.38;48.08
20696;BME280;10507;52.754;13.040;2023-07-09T09:14:56;100993.72;;;32.09;48.79
20696;BME280;10507;52.754;13.040;2023-07-09T09:17:26;101014.75;;;32.23;48.67
20696;BME280;10507;52.754;13.040;2023-07-09T09:19:58;100987.97;;;32.17;47.78
20696;BME280;10507;52.754;13.040;2023-07-09T09:22:42;101039.97;;;31.94;49.57
20696;BME280;10507;52.754;13.040;2023-07-09T09:25:20;101016.34;;;31.78;49.62
20696;BME280;10507;52.754;13.040;2023-07-09T09:27:51;101006.31;;;31.70;49.38
20696;BME280;10507;52.754;13.040;2023-07-09T09:30:21;101008.22;;;31.63;49.66
20696;BME280;10507;52.754;13.040;2023-07-09T09:32:53;100969.44;;;31.36;49.06
20696;BME280;10507;52.754;13.040;2023-07-09T09:35:27;101037.25;;;31.52;50.39
20696;BME280;10507;52.754;13.040;2023-07-09T09:37:57;101019.44;;;31.55;49.56
20696;BME280;10507;52.754;13.040;2023-07-09T09:40:28;101012.00;;;31.48;49.50
20696;BME280;10507;52.754;13.040;2023-07-09T09:43:11;100977.16;;;31.47;47.80
20696;BME280;10507;52.754;13.040;2023-07-09T09:45:41;101046.16;;;31.47;49.90
20696;BME280;10507;52.754;13.040;2023-07-09T09:48:15;100961.09;;;31.23;47.74
20696;BME280;10507;52.754;13.040;2023-07-09T09:50:44;100935.63;;;31.21;47.32
20696;BME280;10507;52.754;13.040;2023-07-09T09:53:18;101028.34;;;31.57;48.26
20696;BME280;10507;52.754;13.040;2023-07-09T09:55:47;100978.72;;;31.70;46.75
20696;BME280;10507;52.754;13.040;2023-07-09T09:58:18;100921.19;;;31.25;46.11
20696;BME280;10507;52.754;13.040;2023-07-09T10:00:50;100969.16;;;31.73;45.84
20696;BME280;10507;52.754;13.040;2023-07-09T10:03:19;100932.03;;;31.27;46.47
20696;BME280;10507;52.754;13.040;2023-07-09T10:05:50;101030.53;;;31.68;47.76
20696;BME280;10507;52.754;13.040;2023-07-09T10:08:26;101013.13;;;31.74;47.72
20696;BME280;10507;52.754;13.040;2023-07-09T10:11:07;101059.50;;;31.92;47.94
20696;BME280;10507;52.754;13.040;2023-07-09T10:13:40;100984.16;;;31.50;47.23
20696;BME280;10507;52.754;13.040;2023-07-09T10:16:18;101090.94;;;31.84;49.51
20696;BME280;10507;52.754;13.040;2023-07-09T10:18:53;100975.88;;;31.50;47.21
20696;BME280;10507;52.754;13.040;2023-07-09T10:21:30;100982.38;;;31.36;47.99
20696;BME280;10507;52.754;13.040;2023-07-09T10:24:13;101011.84;;;31.70;47.15
20696;BME280;10507;52.754;13.040;2023-07-09T10:26:53;100945.03;;;31.40;46.41
20696;BME280;10507;52.754;13.040;2023-07-09T10:29:45;100998.22;;;31.55;47.50
20696;BME280;10507;52.754;13.040;2023-07-09T10:32:29;100986.31;;;31.48;47.78
20696;BME280;10507;52.754;13.040;2023-07-09T10:35:04;101064.34;;;31.77;48.73
20696;BME280;10507;52.754;13.040;2023-07-09T10:37:48;101025.25;;;31.73;48.00
20696;BME280;10507;52.754;13.040;2023-07-09T10:40:35;101088.47;;;32.03;49.25
20696;BME280;10507;52.754;13.040;2023-07-09T10:43:05;100972.16;;;31.71;47.28
20696;BME280;10507;52.754;13.040;2023-07-09T10:45:42;100978.03;;;31.61;46.68
20696;BME280;10507;52.754;13.040;2023-07-09T10:48:15;100994.16;;;31.51;47.58
20696;BME280;10507;52.754;13.040;2023-07-09T10:50:47;100985.34;;;31.34;47.92
20696;BME280;10507;52.754;13.040;2023-07-09T10:53:27;101031.09;;;31.50;48.44
20696;BME280;10507;52.754;13.040;2023-07-09T10:56:00;101029.91;;;31.73;48.61
20696;BME280;10507;52.754;13.040;2023-07-09T10:58:35;101064.16;;;31.85;48.58
20696;BME280;10507;52.754;13.040;2023-07-09T11:01:06;101049.38;;;32.06;47.95
20696;BME280;10507;52.754;13.040;2023-07-09T11:03:42;101043.84;;;32.13;47.86
20696;BME280;10507;52.754;13.040;2023-07-09T11:06:19;100985.13;;;31.84;47.65
20696;BME280;10507;52.754;13.040;2023-07-09T11:08:52;100971.91;;;31.66;47.01
20696;BME280;10507;52.754;13.040;2023-07-09T11:11:30;100962.13;;;31.70;46.32
20696;BME280;10507;52.754;13.040;2023-07-09T11:14:04;100952.81;;;31.64;46.56
20696;BME280;10507;52.754;13.040;2023-07-09T11:16:41;101020.41;;;31.88;47.92
20696;BME280;10507;52.754;13.040;2023-07-09T11:19:14;101009.41;;;32.02;46.98
20696;BME280;10507;52.754;13.040;2023-07-09T11:21:58;100984.78;;;32.07;46.26
20696;BME280;10507;52.754;13.040;2023-07-09T11:24:31;100944.63;;;31.98;45.96
20696;BME280;10507;52.754;13.040;2023-07-09T11:27:00;100989.47;;;32.13;46.11
20696;BME280;10507;52.754;13.040;2023-07-09T11:29:28;100977.78;;;32.04;47.07
20696;BME280;10507;52.754;13.040;2023-07-09T11:32:07;101002.41;;;31.99;47.84
20696;BME280;10507;52.754;13.040;2023-07-09T11:34:45;100968.34;;;31.92;46.99
20696;BME280;10507;52.754;13.040;2023-07-09T11:37:14;101012.63;;;32.05;47.55
20696;BME280;10507;52.754;13.040;2023-07-09T11:39:45;100961.19;;;31.98;46.28
20696;BME280;10507;52.754;13.040;2023-07-09T11:42:31;100918.38;;;31.60;46.62
20696;BME280;10507;52.754;13.040;2023-07-09T11:45:07;100996.16;;;31.77;48.16
20696;BME280;10507;52.754;13.040;2023-07-09T11:47:42;100998.06;;;31.83;48.13
20696;BME280;10507;52.754;13.040;2023-07-09T11:50:21;100995.56;;;31.88;47.64
20696;BME280;10507;52.754;13.040;2023-07-09T11:52:54;100977.69;;;31.84;47.46
20696;BME280;10507;52.754;13.040;2023-07-09T11:55:28;100929.47;;;31.80;46.04
20696;BME280;10507;52.754;13.040;2023-07-09T11:57:58;100925.22;;;31.84;45.76
20696;BME280;10507;52.754;13.040;2023-07-09T12:00:30;100967.50;;;31.92;47.21
20696;BME280;10507;52.754;13.040;2023-07-09T12:03:02;100947.97;;;31.80;47.38
20696;BME280;10507;52.754;13.040;2023-07-09T12:05:30;100962.41;;;31.88;47.21
20696;BME280;10507;52.754;13.040;2023-07-09T12:07:59;100990.50;;;31.99;47.46
20696;BME280;10507;52.754;13.040;2023-07-09T12:10:31;100963.50;;;32.01;47.21
20696;BME280;10507;52.754;13.040;2023-07-09T12:13:00;100919.72;;;31.91;46.37
20696;BME280;10507;52.754;13.040;2023-07-09T12:15:30;101030.25;;;32.04;48.98
20696;BME280;10507;52.754;13.040;2023-07-09T12:18:03;100973.72;;;32.00;47.71
20696;BME280;10507;52.754;13.040;2023-07-09T12:20:36;100913.56;;;31.96;46.46
20696;BME280;10507;52.754;13.040;2023-07-09T12:23:10;100852.31;;;31.59;45.44
20696;BME280;10507;52.754;13.040;2023-07-09T12:25:39;100857.44;;;31.48;46.07
20696;BME280;10507;52.754;13.040;2023-07-09T12:28:13;100870.09;;;31.36;46.25
20696;BME280;10507;52.754;13.040;2023-07-09T12:30:45;100891.81;;;31.46;47.16
20696;BME280;10507;52.754;13.040;2023-07-09T12:33:18;100862.03;;;31.28;46.15
20696;BME280;10507;52.754;13.040;2023-07-09T12:35:47;100892.44;;;31.41;46.63
20696;BME280;10507;52.754;13.040;2023-07-09T12:38:18;100971.25;;;31.57;48.56
20696;BME280;10507;52.754;13.040;2023-07-09T12:40:48;100921.63;;;31.77;46.52
20696;BME280;10507;52.754;13.040;2023-07-09T12:43:22;100896.13;;;31.88;45.83
20696;BME280;10507;52.754;13.040;2023-07-09T12:45:57;100903.56;;;31.95;46.28
20696;BME280;10507;52.754;13.040;2023-07-09T12:48:28;100854.47;;;31.77;45.54
20696;BME280;10507;52.754;13.040;2023-07-09T12:50:58;100898.00;;;31.68;47.25
20696;BME280;10507;52.754;13.040;2023-07-09T12:53:28;100959.88;;;31.94;47.94
20696;BME280;10507;52.754;13.040;2023-07-09T12:55:59;100912.91;;;31.94;46.40
20696;BME280;10507;52.754;13.040;2023-07-09T12:58:29;100875.72;;;31.89;46.08
20696;BME280;10507;52.754;13.040;2023-07-09T13:01:00;100865.09;;;31.66;45.98